메인 페이지
METAR-TAF:

METAR-TAF

공항 :

몬트리올 트뤼도, 퀘벡, 캐나다

몬트리올 피에르 엘리오트 트뤼도 국제공항

위도: 45-28N, 경도: 073-45W, 고도: 31m

현재 날씨관측

예보는 40분 전, 18:27시(UTC)에 발표되었습니다.
남서9kt
온도 -2°C
습도 74%
기압 1011 hPa
시정: 16.1km
고도 2000ft 상공 구름 많음
고도 3300ft 상공 흐림

METAR: CYUL 191827Z 23009KT 10SM BKN020 OVC033 M02/M06 A2984 RMK SC6SC2 SLP107

시각: 14:07 (19:07 UTC)

예보

예보는 1 시간 24분 전, 17:43시(UTC)에 발표되었습니다.
예보 대상 시간: 19일 18시부터 20일 18시까지 (UTC)
남남서7kt
시정: 8.0km
고도 1500ft 상공 흐림
약한눈
일시적
19일 18시부터 20일 04시까지 (UTC)
시정: 10km
고도 2500ft 상공 흐림
확률 30%
20일 00시부터 20일 03시까지 (UTC)
약한눈
20일 0400시부터 (UTC)
남서15kt
시정: 10km
고도 2500ft 상공 구름 보통
고도 7000ft 상공 흐림
확률 30%
20일 04시부터 20일 13시까지 (UTC)
시정: 4.8km
약한눈, 얼음 싸라기
20일 1400시부터 (UTC)
서남서15kt, 순간 최대 풍속 25kt
시정: 10km
고도 1500ft 상공 흐림

TAF: CYUL 191743Z 1918/2018 21007KT 5SM -SN OVC015 TEMPO 1918/2004 P6SM NSW OVC025 PROB30 2000/2003 21/2SM -SN FM200400 22015KT P6SM SCT025 OVC070 PROB30 2004/2013 3SM -SNPL FM201400 24015G25KT P6SM OVC015 RMK NXT FCST BY 192100Z

4,000개 이상의 공항 관측 자료 및 예보 (METAR 및 TAF 보고).

지도상에서 검색 가능한 기상관측소가 노란 점과 빨간 점으로 표시되어 있습니다.

기상관측소 명을 보려면 표시 위로 마우스를 이동하세요.

날씨 관측과 예보를 보려면 클릭하세요.

지도 변경 : 확대하려면 엑스 표시가 있는 녹색 버튼, 축소하려면 빼기 표시가 있는 녹색 버튼, 다음 페이지의 지도를 보려면 녹색 화살표를 클릭하세요.


METAR-TAF: